Stations météo

réclame
Mon MeteoGroup
Mont-Rigi, Belgique (6494): Température de l'air & dewpoint: 26.05.2020 02:00:00 - 01.06.2020 02:00:00 (CEST)Mont-Rigi, Belgique (6494): Vitesse du vent & gusts: 26.05.2020 02:00:00 - 01.06.2020 02:00:00 (CEST)Mont-Rigi, Belgique (6494): Direction du vent: 26.05.2020 02:00:00 - 01.06.2020 02:00:00 (CEST)Mont-Rigi, Belgique (6494): reduced air pressure: 26.05.2020 02:00:00 - 01.06.2020 02:00:00 (CEST)Mont-Rigi, Belgique (6494): Ensoleillement: 26.05.2020 02:00:00 - 01.06.2020 02:00:00 (CEST)Mont-Rigi, Belgique (6494): Quantités de précipitations: 26.05.2020 02:00:00 - 01.06.2020 02:00:00 (CEST)
Date & Time tt [°C] td [°C] ff [km/h] ff [knt] fx [km/h] fx [knt] dd ppp [hPa] sd [min] rr [mm]
01.06.2020 02:00:00 - - - - - - - - - -
01.06.2020 01:00:00 10,3 3,0 9 5 21 11 ESE 1021,8 0 0,0
01.06.2020 00:00:00 10,7 2,8 10 6 21 11 ESE 1021,5 0 0,0
31.05.2020 23:00:00 10,1 1,7 5 3 12 7 E 1021,6 0 0,0
31.05.2020 22:00:00 11,2 1,3 5 3 10 6 E 1021,1 0 0,0
31.05.2020 21:00:00 14,3 1,5 8 4 22 12 E 1020,0 0 0,0
31.05.2020 20:00:00 16,6 1,7 11 6 23 12 ENE 1019,0 0 0,0
31.05.2020 19:00:00 17,4 1,1 9 5 27 15 ENE 1018,5 0 0,0
31.05.2020 18:00:00 17,7 1,5 12 6 28 15 E 1018,8 0 0,0
31.05.2020 17:00:00 17,6 2,2 8 4 31 17 E 1018,6 0 0,0
31.05.2020 16:00:00 17,2 1,5 11 6 27 14 ENE 1019,1 0 0,0
31.05.2020 15:00:00 16,7 0,2 14 8 29 16 E 1019,4 0 0,0
31.05.2020 14:00:00 16,2 -0,5 11 6 31 17 ENE 1019,6 0 0,0
31.05.2020 13:00:00 15,4 0,3 10 5 28 15 NE 1020,1 0 0,0
31.05.2020 12:00:00 15,2 3,2 11 6 30 16 ENE 1019,9 0 0,0
31.05.2020 11:00:00 14,2 3,2 11 6 28 15 NE 1020,6 0 0,0
31.05.2020 10:00:00 13,4 3,0 13 7 23 12 ENE 1020,8 0 0,0
31.05.2020 09:00:00 12,6 2,7 12 6 21 11 ENE 1020,8 0 0,0
31.05.2020 08:00:00 11,8 3,4 7 4 14 7 E 1020,9 0 0,0
31.05.2020 07:00:00 7,6 2,7 6 3 10 5 ENE 1022,0 0 0,0
31.05.2020 06:00:00 6,1 1,2 6 4 11 6 ENE 1022,5 0 0,0
31.05.2020 05:00:00 6,4 0,5 6 3 12 7 ENE 1022,4 0 0,0
31.05.2020 04:00:00 8,3 0,8 6 4 12 6 E 1022,0 0 0,0
31.05.2020 03:00:00 8,2 0,2 6 3 15 8 E 1022,2 0 0,0
31.05.2020 02:00:00 9,1 0,6 7 4 17 9 ESE 1022,0 0 0,0
31.05.2020 01:00:00 9,5 1,0 9 5 17 9 ESE 1022,2 0 0,0
31.05.2020 00:00:00 9,6 1,0 6 3 13 7 E 1022,2 0 0,0
30.05.2020 23:00:00 11,5 1,3 8 4 22 12 E 1021,4 0 0,0
30.05.2020 22:00:00 12,3 1,1 7 4 22 12 ENE 1021,0 0 0,0
30.05.2020 21:00:00 15,5 1,0 11 6 25 13 E 1019,6 0 0,0
30.05.2020 20:00:00 17,2 1,2 11 6 22 12 NE 1019,2 0 0,0
30.05.2020 19:00:00 16,9 1,4 13 7 31 17 ENE 1019,6 0 0,0
30.05.2020 18:00:00 17,5 1,6 12 7 25 13 ENE 1019,6 0 0,0
30.05.2020 17:00:00 18,4 2,2 12 6 27 14 NE 1019,5 0 0,0
30.05.2020 16:00:00 18,7 2,6 11 6 26 14 E 1019,8 0 0,0
30.05.2020 15:00:00 18,6 3,1 12 6 37 20 E 1020,3 0 0,0
30.05.2020 14:00:00 17,4 1,3 11 6 33 18 ENE 1021,3 0 0,0
30.05.2020 13:00:00 17,5 1,5 11 6 32 17 E 1021,2 0 0,0
30.05.2020 12:00:00 16,5 1,8 11 6 41 22 E 1021,5 0 0,0
30.05.2020 11:00:00 15,8 1,5 16 9 30 16 ESE 1022,0 0 0,0
30.05.2020 10:00:00 14,5 1,7 14 8 28 15 ESE 1022,5 0 0,0
30.05.2020 09:00:00 13,7 2,6 8 5 22 12 E 1022,6 0 0,0
30.05.2020 08:00:00 12,1 2,2 7 4 18 10 E 1022,8 0 0,0
30.05.2020 07:00:00 9,1 1,0 9 5 17 9 E 1023,6 0 0,0
30.05.2020 06:00:00 8,6 0,2 9 5 19 10 E 1023,7 0 0,0
30.05.2020 05:00:00 8,8 0,1 9 5 18 10 ESE 1023,7 0 0,0
30.05.2020 04:00:00 9,4 0,3 10 5 20 11 ESE 1023,7 0 0,0
30.05.2020 03:00:00 9,5 0,1 9 5 21 11 ESE 1023,8 0 0,0
30.05.2020 02:00:00 10,0 -0,1 7 4 18 10 E 1023,8 0 0,0
30.05.2020 01:00:00 9,0 -0,5 7 4 14 8 E 1023,9 0 0,0
30.05.2020 00:00:00 9,0 -0,5 8 4 14 7 ENE 1023,9 0 0,0
29.05.2020 23:00:00 9,7 0,0 5 3 11 6 NE 1023,8 0 0,0
29.05.2020 22:00:00 11,4 1,7 5 3 10 6 NNE 1023,5 0 0,0
29.05.2020 21:00:00 15,0 1,4 6 3 16 9 NE 1022,3 0 0,0
29.05.2020 20:00:00 16,9 1,2 7 4 20 11 NE 1022,1 0 0,0
29.05.2020 19:00:00 17,4 1,1 11 6 23 13 ENE 1022,3 0 0,0
29.05.2020 18:00:00 17,9 1,7 9 5 27 15 NE 1022,4 0 0,0
29.05.2020 17:00:00 18,3 1,5 10 6 25 13 ENE 1023,0 0 0,0
29.05.2020 16:00:00 18,1 1,7 13 7 27 14 ENE 1023,5 0 0,0
29.05.2020 15:00:00 17,8 1,3 11 6 27 15 ENE 1024,2 0 0,0
29.05.2020 14:00:00 17,4 1,9 11 6 23 12 ENE 1024,8 0 0,0
29.05.2020 13:00:00 16,9 2,2 9 5 25 14 ENE 1025,5 0 0,0
29.05.2020 12:00:00 16,2 1,6 11 6 20 11 E 1026,0 0 0,0
29.05.2020 11:00:00 15,7 2,0 10 5 26 14 ESE 1026,4 0 0,0
29.05.2020 10:00:00 14,3 1,5 12 6 23 13 ESE 1026,9 1 0,0
29.05.2020 09:00:00 13,4 2,5 9 5 19 10 E 1027,1 0 0,0
29.05.2020 08:00:00 11,4 3,0 7 4 19 10 E 1027,5 0 0,0
29.05.2020 07:00:00 7,9 1,9 9 5 16 9 E 1028,5 0 0,0
29.05.2020 06:00:00 6,5 0,8 8 5 18 10 E 1029,0 0 0,0
29.05.2020 05:00:00 6,9 0,6 9 5 18 10 E 1029,1 0 0,0
29.05.2020 04:00:00 7,2 0,3 10 5 21 11 ENE 1029,3 0 0,0
29.05.2020 03:00:00 7,5 0,3 10 6 16 9 ENE 1029,4 0 0,0
29.05.2020 02:00:00 8,1 -0,2 11 6 17 9 ENE 1029,6 0 0,0
29.05.2020 01:00:00 9,0 -0,2 11 6 20 11 ENE 1029,4 0 0,0
29.05.2020 00:00:00 9,7 -0,7 8 4 20 11 ENE 1029,4 0 0,0
28.05.2020 23:00:00 9,9 -1,1 9 5 17 9 ENE 1029,2 0 0,0
28.05.2020 22:00:00 10,6 -1,5 6 4 17 9 ENE 1029,3 0 0,0
28.05.2020 21:00:00 12,9 -1,8 8 4 27 15 NE 1028,7 0 0,0
28.05.2020 20:00:00 15,1 -1,4 11 6 22 12 NE 1028,3 0 0,0
28.05.2020 19:00:00 16,0 -1,2 12 7 24 13 NE 1028,3 0 0,0
28.05.2020 18:00:00 16,8 0,2 12 7 29 15 NE 1028,6 0 0,0
28.05.2020 17:00:00 16,7 -0,1 10 5 26 14 NNE 1028,9 0 0,0
28.05.2020 16:00:00 16,6 0,5 12 7 31 17 NE 1029,3 0 0,0
28.05.2020 15:00:00 16,6 0,4 11 6 31 17 ENE 1029,5 0 0,0
28.05.2020 14:00:00 16,2 2,5 11 6 29 16 NNE 1029,8 0 0,0
28.05.2020 13:00:00 15,4 1,8 14 7 33 18 NE 1030,4 0 0,0
28.05.2020 12:00:00 14,7 1,6 14 8 34 19 ENE 1030,9 0 0,0
28.05.2020 11:00:00 13,5 1,5 16 9 32 18 ENE 1031,4 0 0,0
28.05.2020 10:00:00 12,3 5,1 16 9 31 17 ENE 1031,5 0 0,0
28.05.2020 09:00:00 11,0 6,5 13 7 32 17 ENE 1031,5 0 0,0
28.05.2020 08:00:00 8,0 5,0 14 8 30 16 ENE 1032,2 0 0,0
28.05.2020 07:00:00 5,9 3,5 15 8 25 14 ENE 1032,9 0 0,0
28.05.2020 06:00:00 5,7 4,6 10 6 21 12 ENE 1032,8 0 0,0
28.05.2020 05:00:00 7,0 5,9 6 3 19 11 NE 1032,5 0 0,0
28.05.2020 04:00:00 9,0 7,7 8 4 15 8 NE 1032,1 0 0,0
28.05.2020 03:00:00 8,9 7,0 6 4 14 7 NE 1032,1 0 0,0
28.05.2020 02:00:00 8,7 6,0 7 4 14 8 NE 1032,5 0 0,0
28.05.2020 01:00:00 9,5 5,4 6 3 18 10 NE 1032,5 0 0,0
28.05.2020 00:00:00 11,1 5,5 9 5 17 9 NNW 1032,3 0 0,0
27.05.2020 23:00:00 12,1 6,7 7 4 16 9 NNW 1032,1 0 0,0
27.05.2020 22:00:00 13,6 6,1 8 4 17 9 NNW 1031,4 0 0,0
27.05.2020 21:00:00 15,8 6,6 9 5 18 10 NNW 1030,5 0 0,0
27.05.2020 20:00:00 16,9 8,1 7 4 21 12 N 1030,2 0 0,0
27.05.2020 19:00:00 17,4 7,3 9 5 21 11 NNW 1030,3 0 0,0
27.05.2020 18:00:00 19,3 7,0 13 7 26 14 NW 1030,1 0 0,0
27.05.2020 17:00:00 19,8 7,2 11 6 32 17 NW 1030,1 0 0,0
27.05.2020 16:00:00 19,4 5,3 11 6 26 14 NNW 1030,6 0 0,0
27.05.2020 15:00:00 19,4 5,3 12 6 24 13 NW 1030,8 0 0,0
27.05.2020 14:00:00 19,5 5,4 7 4 22 12 NNW 1031,0 0 0,0
27.05.2020 13:00:00 18,7 5,5 9 5 24 13 N 1031,3 0 0,0
27.05.2020 12:00:00 18,2 5,1 10 6 18 10 NNW 1032,1 0 0,0
27.05.2020 11:00:00 16,8 4,1 8 5 23 12 NNW 1032,3 0 0,0
27.05.2020 10:00:00 16,3 5,2 6 4 18 10 NNW 1032,2 0 0,0
27.05.2020 09:00:00 15,6 6,3 6 4 15 8 N 1032,4 0 0,0
27.05.2020 08:00:00 13,0 7,3 4 2 8 5 N 1033,1 0 0,0
27.05.2020 07:00:00 7,8 5,8 0 0 2 1 N 1034,6 0 0,0
27.05.2020 06:00:00 6,5 4,4 0 0 4 2 N 1034,9 0 0,0
27.05.2020 05:00:00 7,0 4,2 4 2 6 4 ESE 1034,6 0 0,0
27.05.2020 04:00:00 7,3 3,8 4 2 8 4 E 1034,7 0 0,0
27.05.2020 03:00:00 8,5 3,5 6 3 10 5 E 1034,6 0 0,0
27.05.2020 02:00:00 9,8 3,9 7 4 14 8 E 1034,7 0 0,0
27.05.2020 01:00:00 9,7 4,6 9 5 13 7 E 1034,6 0 0,0
27.05.2020 00:00:00 7,7 3,1 6 3 10 5 ENE 1035,3 0 0,0
26.05.2020 23:00:00 8,1 2,7 4 2 10 5 NE 1035,5 0 0,0
26.05.2020 22:00:00 10,9 1,5 5 3 11 6 NNE 1034,6 0 0,0
26.05.2020 21:00:00 14,1 0,4 4 2 14 8 N 1033,7 0 0,0
26.05.2020 20:00:00 17,0 1,6 7 4 21 11 N 1032,7 0 0,0
26.05.2020 19:00:00 17,4 0,9 9 5 26 14 N 1032,7 0 0,0
26.05.2020 18:00:00 17,8 0,3 12 7 25 14 NNW 1032,5 0 0,0
26.05.2020 17:00:00 17,9 1,7 11 6 25 14 N 1032,9 0 0,0
26.05.2020 16:00:00 17,7 0,2 11 6 30 16 NNE 1032,9 0 0,0
26.05.2020 15:00:00 17,5 3,0 13 7 29 15 NNW 1033,2 0 0,0
26.05.2020 14:00:00 17,1 4,6 11 6 26 14 N 1033,4 0 0,0
26.05.2020 13:00:00 16,3 4,6 11 6 28 15 N 1033,7 0 0,0
26.05.2020 12:00:00 15,7 5,7 10 5 26 14 N 1033,8 0 0,0
26.05.2020 11:00:00 14,2 5,0 11 6 26 14 N 1034,3 0 0,0
26.05.2020 10:00:00 13,0 4,5 11 6 23 12 N 1034,5 0 0,0
26.05.2020 09:00:00 12,0 6,7 9 5 22 12 N 1034,3 0 0,0
26.05.2020 08:00:00 10,5 10,2 4 2 10 5 NNE 1034,3 0 0,0
26.05.2020 07:00:00 6,7 6,3 5 3 11 6 ENE 1035,4 0 0,0
26.05.2020 06:00:00 5,4 5,0 6 3 9 5 ENE 1035,7 0 0,0
26.05.2020 05:00:00 5,9 5,4 5 3 8 5 NE 1035,3 0 0,0
26.05.2020 04:00:00 6,2 5,8 6 3 9 5 ENE 1035,3 0 0,0
26.05.2020 03:00:00 5,9 5,0 6 3 9 5 ENE 1035,5 0 0,0
26.05.2020 02:00:00 6,2 4,5 4 2 9 5 ENE 1035,6 0 0,0

tt = Température de l'air
td = dewpoint
ff = Vitesse du vent
fx = gusts
dd = Direction du vent
ppp = reduced air pressure
sd = Ensoleillement
rr = Quantités de précipitations

stations d'obs. à proximité